Time;durP1;ratioP1;P1;durP2;ratioP2;P2;SDS_P1;SDS_P2;PMS_P1;PMS_P2;Temp;Humidity;BMP_temperature;BMP_pressure;BME280_temperature;BME280_humidity;BME280_pressure;Samples;Min_cycle;Max_cycle;Signal;HPM_P1;HPM_P2
2022/01/15 00:01:46;;;;;;;49.67;28.70;;;;;;;3.60;94.52;101442.97;10444983;28;20470;-74
2022/01/15 00:06:48;;;;;;;45.40;27.77;;;;;;;3.58;94.83;101442.91;10463192;28;20040;-74
2022/01/15 00:11:51;;;;;;;50.53;28.70;;;;;;;3.75;93.95;101445.84;10462584;28;20065;-75
2022/01/15 00:17:03;;;;;;;42.42;27.73;;;;;;;3.65;93.54;101442.19;10444537;28;20536;-74
2022/01/15 00:22:05;;;;;;;45.20;28.75;;;;;;;3.77;93.99;101438.94;10443518;28;20498;-74
2022/01/15 00:27:07;;;;;;;48.78;27.98;;;;;;;3.56;95.11;101449.81;10458599;23;20448;-76
2022/01/15 00:32:10;;;;;;;46.97;29.13;;;;;;;3.63;94.81;101445.59;10476691;28;20045;-76
2022/01/15 00:37:12;;;;;;;42.55;29.23;;;;;;;3.74;93.86;101446.69;10479922;28;20478;-76
2022/01/15 00:42:14;;;;;;;49.40;30.20;;;;;;;3.71;93.53;101444.88;10471307;28;20450;-76
2022/01/15 00:47:16;;;;;;;49.75;30.23;;;;;;;3.58;94.82;101449.84;10453012;28;20049;-76
2022/01/15 00:52:18;;;;;;;58.40;31.10;;;;;;;3.46;95.51;101451.38;10470868;28;20490;-76
2022/01/15 00:57:20;;;;;;;50.00;30.98;;;;;;;3.38;95.99;101452.94;10454772;28;20048;-76
2022/01/15 01:02:22;;;;;;;57.90;30.13;;;;;;;3.45;96.41;101462.63;10452216;28;20049;-76
2022/01/15 01:07:24;;;;;;;48.40;29.58;;;;;;;3.21;96.37;101454.31;10470129;28;20466;-75
2022/01/15 01:22:55;;;;;;;41.92;28.35;;;;;;;3.31;95.47;101451.03;10478602;28;20045;-74
2022/01/15 01:28:05;;;;;;;49.13;30.13;;;;;;;3.18;96.14;101455.09;10474215;28;20454;-74
2022/01/15 01:33:30;;;;;;;54.17;29.45;;;;;;;3.14;96.45;101455.00;10454206;28;20053;-75
2022/01/15 01:38:42;;;;;;;44.53;27.15;;;;;;;3.16;96.44;101458.53;10454139;28;20576;-74
2022/01/15 01:43:52;;;;;;;43.45;27.77;;;;;;;3.44;94.78;101454.75;10460292;28;20051;-74
2022/01/15 01:48:56;;;;;;;46.60;28.13;;;;;;;3.22;95.51;101443.94;10472590;28;20135;-74
2022/01/15 01:54:00;;;;;;;45.65;28.17;;;;;;;3.15;95.86;101443.78;10452803;28;20045;-75
2022/01/15 01:59:03;;;;;;;33.38;26.33;;;;;;;3.35;94.29;101437.25;10470825;28;20333;-75
2022/01/15 02:04:05;;;;;;;36.40;26.52;;;;;;;3.34;94.23;101434.66;10457135;28;20045;-75
2022/01/15 02:09:07;;;;;;;40.05;27.88;;;;;;;3.20;95.25;101431.75;10468001;28;20101;-75
2022/01/15 02:14:09;;;;;;;44.42;27.02;;;;;;;3.18;95.31;101436.03;10470312;28;20091;-74
2022/01/15 02:19:11;;;;;;;51.70;27.85;;;;;;;3.19;95.51;101425.69;10471217;28;20494;-74
2022/01/15 02:24:13;;;;;;;43.65;25.45;;;;;;;3.28;95.01;101438.88;10457062;28;20072;-75
2022/01/15 02:29:14;;;;;;;28.98;23.48;;;;;;;3.48;92.04;101439.25;10453929;28;20071;-74
2022/01/15 02:34:16;;;;;;;26.88;20.63;;;;;;;3.25;92.89;101432.72;10451513;28;20529;-75
2022/01/15 02:39:17;;;;;;;28.80;21.30;;;;;;;3.40;92.13;101429.56;10451685;28;20048;-75
2022/01/15 02:44:20;;;;;;;30.10;19.50;;;;;;;3.47;91.05;101418.44;10474096;28;20045;-75
2022/01/15 02:49:23;;;;;;;26.45;18.98;;;;;;;3.53;90.95;101421.16;10453527;28;20075;-74
2022/01/15 02:54:24;;;;;;;27.70;18.45;;;;;;;3.20;92.31;101429.16;10467778;28;20055;-74
2022/01/15 02:59:26;;;;;;;18.55;16.63;;;;;;;3.18;93.16;101423.03;10450325;28;20053;-75
2022/01/15 03:04:28;;;;;;;25.42;18.00;;;;;;;3.37;91.78;101412.19;10469031;28;20045;-74
2022/01/15 03:09:29;;;;;;;27.15;19.10;;;;;;;3.22;92.31;101411.88;10473097;28;20044;-74
2022/01/15 03:14:31;;;;;;;25.80;16.30;;;;;;;3.42;90.61;101407.97;10471045;28;20045;-74
2022/01/15 03:19:33;;;;;;;26.92;16.20;;;;;;;3.35;90.89;101403.47;10451994;28;20068;-74
2022/01/15 03:24:35;;;;;;;25.30;17.83;;;;;;;3.39;90.76;101402.69;10451884;28;20041;-74
2022/01/15 03:29:37;;;;;;;20.35;17.10;;;;;;;3.38;90.49;101408.75;10472929;28;20047;-75
2022/01/15 03:34:39;;;;;;;19.52;17.13;;;;;;;3.20;90.95;101414.44;10469569;28;20067;-75
2022/01/15 03:39:41;;;;;;;24.48;16.00;;;;;;;3.58;88.86;101405.63;10469800;28;20405;-75
2022/01/15 03:44:46;;;;;;;21.58;14.45;;;;;;;3.36;88.73;101400.03;10468871;28;20045;-74
2022/01/15 03:49:47;;;;;;;24.50;14.07;;;;;;;3.27;87.94;101392.91;10451468;28;20120;-74
2022/01/15 03:54:49;;;;;;;22.10;12.13;;;;;;;3.23;87.35;101400.63;10450172;28;20072;-73
2022/01/15 03:59:51;;;;;;;19.88;10.52;;;;;;;3.21;86.57;101407.53;10449355;28;20048;-74
2022/01/15 04:04:53;;;;;;;17.05;7.90;;;;;;;3.23;84.27;101409.31;10466779;28;20052;-74
2022/01/15 04:09:55;;;;;;;16.88;7.90;;;;;;;3.25;82.39;101406.75;10467274;28;20033;-75
2022/01/15 04:14:57;;;;;;;19.77;9.35;;;;;;;3.16;83.49;101403.97;10452935;28;20051;-76
2022/01/15 04:19:58;;;;;;;15.85;8.02;;;;;;;3.15;82.93;101400.50;10456932;28;20043;-74
2022/01/15 04:25:00;;;;;;;20.55;7.53;;;;;;;3.26;82.58;101398.97;10458029;28;20045;-75
2022/01/15 04:30:03;;;;;;;19.67;8.93;;;;;;;3.14;83.96;101408.25;10476524;28;20060;-74
2022/01/15 04:35:06;;;;;;;23.33;9.40;;;;;;;3.17;85.14;101403.13;10480616;28;20048;-74
2022/01/15 04:40:09;;;;;;;28.75;10.18;;;;;;;3.33;83.96;101401.72;10476727;28;20041;-74
2022/01/15 04:45:11;;;;;;;27.70;12.38;;;;;;;3.32;85.16;101403.44;10475129;28;20041;-73
2022/01/15 04:50:15;;;;;;;16.33;11.65;;;;;;;3.45;84.64;101397.63;10475882;28;20060;-74
2022/01/15 04:55:16;;;;;;;30.88;11.23;;;;;;;3.33;85.39;101399.97;10477180;28;20055;-74
2022/01/15 05:00:18;;;;;;;23.08;13.35;;;;;;;3.16;86.21;101398.75;10440286;28;20144;-75
2022/01/15 05:05:20;;;;;;;23.27;12.00;;;;;;;3.20;84.85;101395.38;10474044;28;20056;-75
2022/01/15 05:10:27;;;;;;;22.75;11.40;;;;;;;3.08;85.98;101383.00;10475644;28;20041;-74
2022/01/15 05:15:29;;;;;;;23.42;12.07;;;;;;;3.32;85.42;101381.75;10452362;28;20052;-73
2022/01/15 05:20:32;;;;;;;26.35;13.05;;;;;;;3.12;85.96;101386.56;10448295;28;20063;-73
2022/01/15 05:25:34;;;;;;;27.63;13.07;;;;;;;2.96;86.57;101383.63;10464586;28;20053;-73
2022/01/15 05:30:35;;;;;;;29.25;11.77;;;;;;;3.12;85.77;101390.03;10445916;28;20049;-72
2022/01/15 05:35:37;;;;;;;31.25;12.00;;;;;;;2.97;85.80;101400.13;10463186;28;20064;-73
2022/01/15 05:40:38;;;;;;;30.92;11.80;;;;;;;2.97;85.98;101403.59;10466545;28;20119;-73
2022/01/15 05:45:40;;;;;;;28.30;11.25;;;;;;;2.85;85.63;101397.25;10444369;28;20082;-73
2022/01/15 05:50:42;;;;;;;30.00;11.52;;;;;;;2.74;85.96;101392.69;10462055;28;20045;-73
2022/01/15 05:55:43;;;;;;;29.02;10.13;;;;;;;2.78;84.44;101388.44;10463491;28;20049;-73
2022/01/15 06:00:45;;;;;;;27.35;10.45;;;;;;;2.69;84.46;101393.44;10465100;28;20041;-73
2022/01/15 06:05:47;;;;;;;22.80;10.25;;;;;;;2.41;85.65;101382.44;10462213;28;20064;-73
2022/01/15 06:10:48;;;;;;;33.10;11.90;;;;;;;2.19;86.70;101385.38;10443541;28;20099;-73
2022/01/15 06:15:50;;;;;;;22.70;11.07;;;;;;;2.21;86.67;101394.06;10462031;28;20045;-73
2022/01/15 06:20:51;;;;;;;14.10;9.00;;;;;;;2.08;86.40;101403.28;10445977;28;20045;-73
2022/01/15 06:25:53;;;;;;;31.92;11.80;;;;;;;1.77;87.82;101401.59;10462828;28;20363;-73
2022/01/15 06:30:55;;;;;;;19.77;11.60;;;;;;;1.47;88.92;101405.16;10384070;23;20124;-74
2022/01/15 06:35:57;;;;;;;21.27;10.90;;;;;;;1.39;89.23;101404.06;10377500;28;20100;-73
2022/01/15 06:40:58;;;;;;;22.98;13.60;;;;;;;1.34;90.18;101395.31;10391741;28;20058;-74
2022/01/15 06:46:00;;;;;;;28.45;15.27;;;;;;;1.67;91.14;101405.69;10377539;28;20447;-73
2022/01/15 06:51:03;;;;;;;29.30;13.63;;;;;;;1.52;89.72;101406.16;10377347;28;20499;-73
2022/01/15 06:56:05;;;;;;;21.70;13.75;;;;;;;1.40;91.20;101416.19;10397332;28;20105;-73
2022/01/15 07:01:07;;;;;;;30.00;14.93;;;;;;;1.35;91.78;101409.13;10384051;28;20083;-73
2022/01/15 07:06:09;;;;;;;34.75;16.23;;;;;;;1.50;92.67;101415.59;10383058;28;20046;-74
2022/01/15 07:11:11;;;;;;;25.98;14.52;;;;;;;1.25;92.95;101420.94;10383303;28;20125;-73
2022/01/15 07:16:12;;;;;;;36.38;15.27;;;;;;;1.34;93.33;101423.81;10377221;28;20169;-74
2022/01/15 07:21:14;;;;;;;23.75;13.98;;;;;;;1.47;91.73;101431.06;10378342;28;20120;-74
2022/01/15 07:26:16;;;;;;;36.60;16.27;;;;;;;1.85;91.49;101428.63;10378128;28;20050;-74
2022/01/15 07:31:19;;;;;;;29.60;14.75;;;;;;;2.11;91.05;101431.00;10379439;28;20046;-73
2022/01/15 07:36:21;;;;;;;34.08;14.45;;;;;;;2.26;90.17;101434.00;10379771;28;20054;-73
2022/01/15 07:41:23;;;;;;;46.97;15.50;;;;;;;1.92;91.31;101440.03;10378590;28;20046;-74
2022/01/15 07:46:25;;;;;;;35.22;16.23;;;;;;;1.70;92.45;101442.06;10395087;28;20045;-74
2022/01/15 07:51:27;;;;;;;39.25;15.88;;;;;;;1.73;93.53;101436.97;10379548;28;20566;-75
2022/01/15 07:56:29;;;;;;;42.47;15.77;;;;;;;1.75;94.23;101444.78;10367592;28;20077;-74
2022/01/15 08:01:31;;;;;;;41.13;14.48;;;;;;;1.82;94.50;101456.19;10384123;28;20060;-75
2022/01/15 08:06:33;;;;;;;50.35;15.75;;;;;;;2.26;91.75;101458.22;10384707;28;20038;-74
2022/01/15 08:11:35;;;;;;;35.47;13.70;;;;;;;2.24;90.93;101459.00;10383613;28;20042;-75
2022/01/15 08:16:37;;;;;;;40.15;12.77;;;;;;;2.64;88.34;101460.84;10382323;28;20125;-73
2022/01/15 08:21:39;;;;;;;32.40;12.25;;;;;;;2.68;87.13;101465.25;10367790;28;20128;-74
2022/01/15 08:26:42;;;;;;;32.20;11.77;;;;;;;2.93;85.11;101463.22;10386947;28;20042;-74
2022/01/15 08:31:44;;;;;;;22.75;10.65;;;;;;;2.76;85.74;101470.63;10401112;28;20076;-75
2022/01/15 08:36:46;;;;;;;27.27;11.98;;;;;;;2.93;84.07;101466.69;10381081;28;20046;-75
2022/01/15 08:41:48;;;;;;;38.03;13.75;;;;;;;3.01;82.73;101470.34;10382378;28;20117;-74
2022/01/15 08:46:53;;;;;;;33.72;8.45;;;;;;;3.16;82.03;101466.31;10382044;28;20046;-75
2022/01/15 08:51:58;;;;;;;26.08;6.75;;;;;;;3.27;80.22;101468.28;10383704;28;20061;-73
2022/01/15 08:57:00;;;;;;;30.02;7.53;;;;;;;3.32;79.91;101465.81;10380928;28;20046;-73
2022/01/15 09:02:02;;;;;;;25.45;6.13;;;;;;;3.23;80.72;101481.19;10382229;28;20045;-74
2022/01/15 09:07:04;;;;;;;28.45;9.13;;;;;;;3.26;81.08;101469.13;10383482;28;20041;-76
2022/01/15 09:12:11;;;;;;;37.85;6.35;;;;;;;3.43;78.90;101469.50;10382133;28;20047;-74
2022/01/15 09:17:13;;;;;;;37.35;7.50;;;;;;;3.42;79.55;101475.53;10380861;28;20048;-74
2022/01/15 09:22:14;;;;;;;20.30;6.20;;;;;;;3.45;80.48;101475.63;10379820;28;20045;-74
2022/01/15 09:32:43;;;;;;;31.23;8.00;;;;;;;3.43;79.72;101490.28;10351749;28;20103;-74
2022/01/15 09:37:47;;;;;;;33.25;8.38;;;;;;;3.79;76.89;101484.06;10374337;28;20128;-73
2022/01/15 09:42:49;;;;;;;35.65;6.57;;;;;;;3.94;76.17;101486.06;10322273;28;20066;-73
2022/01/15 09:48:01;;;;;;;26.00;6.78;;;;;;;3.99;75.21;101471.44;10354584;28;20065;-73
2022/01/15 09:53:03;;;;;;;29.45;11.75;;;;;;;3.77;77.34;101488.38;10378903;28;20042;-74
2022/01/15 09:58:05;;;;;;;42.72;7.50;;;;;;;3.70;77.64;101484.75;10381448;28;20058;-73
2022/01/15 10:03:07;;;;;;;31.70;5.38;;;;;;;3.84;76.81;101478.94;10379133;28;20104;-73
2022/01/15 10:08:12;;;;;;;25.10;5.95;;;;;;;3.94;75.87;101478.25;10376346;28;20065;-73
2022/01/15 10:13:28;;;;;;;24.00;5.35;;;;;;;4.15;72.43;101467.34;10360608;28;20042;-74
2022/01/15 10:18:32;;;;;;;19.05;5.00;;;;;;;4.33;69.80;101475.47;10379376;28;20557;-73
2022/01/15 10:23:53;;;;;;;21.67;4.18;;;;;;;4.23;68.83;101466.63;10377186;28;20046;-73
2022/01/15 10:28:58;;;;;;;24.38;4.78;;;;;;;4.03;70.03;101460.22;10337178;28;20096;-72
2022/01/15 10:34:20;;;;;;;28.23;4.93;;;;;;;4.38;67.86;101457.31;10351276;28;20161;-74
2022/01/15 10:39:22;;;;;;;21.52;4.13;;;;;;;4.41;65.91;101460.84;10352241;28;20129;-73
2022/01/15 10:44:42;;;;;;;31.23;5.30;;;;;;;4.28;66.44;101465.00;10376340;28;20069;-73
2022/01/15 10:49:45;;;;;;;29.42;4.88;;;;;;;4.20;66.99;101466.56;10374430;28;20042;-73
2022/01/15 10:55:05;;;;;;;21.40;4.70;;;;;;;4.22;66.52;101451.00;10377225;28;20141;-73
2022/01/15 11:00:11;;;;;;;21.58;4.13;;;;;;;4.22;65.53;101436.25;10377784;28;20042;-73
2022/01/15 11:05:21;;;;;;;31.60;6.50;;;;;;;4.29;67.43;101448.53;10376468;28;20042;-74
2022/01/15 11:10:23;;;;;;;26.65;3.63;;;;;;;4.09;64.76;101436.91;10375620;28;20107;-73
2022/01/15 11:15:24;;;;;;;25.73;7.40;;;;;;;4.20;65.68;101434.47;10375343;28;20049;-74
2022/01/15 11:20:31;;;;;;;19.58;3.60;;;;;;;4.64;63.01;101427.34;10375630;28;20046;-73
2022/01/15 11:25:32;;;;;;;16.50;4.10;;;;;;;4.38;65.59;101421.75;10379654;28;20041;-73
2022/01/15 11:30:35;;;;;;;15.15;3.92;;;;;;;4.25;65.82;101410.28;10383862;28;20094;-73
2022/01/15 11:35:45;;;;;;;24.80;6.20;;;;;;;4.31;65.62;101404.31;10386093;28;20049;-73
2022/01/15 11:40:48;;;;;;;22.65;6.47;;;;;;;4.47;64.73;101413.22;10387034;28;20049;-74
2022/01/15 11:45:53;;;;;;;17.00;3.97;;;;;;;4.69;63.29;101411.78;10386082;28;20112;-74
2022/01/15 11:51:13;;;;;;;21.70;4.63;;;;;;;4.66;62.84;101403.97;10386933;28;20056;-74
2022/01/15 11:56:18;;;;;;;23.92;5.43;;;;;;;4.66;64.09;101394.41;10384040;28;20054;-73
2022/01/15 12:01:42;;;;;;;28.50;6.32;;;;;;;4.26;63.90;101380.81;10385720;28;20073;-73
2022/01/15 12:07:05;;;;;;;26.50;5.05;;;;;;;4.33;63.61;101366.13;10385176;28;20068;-73
2022/01/15 12:12:30;;;;;;;23.98;5.20;;;;;;;4.17;64.37;101356.38;10369469;28;20056;-74
2022/01/15 12:17:35;;;;;;;21.48;3.58;;;;;;;4.51;62.47;101345.56;10386037;28;20038;-74
2022/01/15 12:22:46;;;;;;;15.15;3.47;;;;;;;4.40;63.46;101344.56;10385934;28;20140;-73
2022/01/15 12:27:57;;;;;;;19.70;4.75;;;;;;;4.04;65.45;101332.75;10401035;23;20046;-69
2022/01/15 12:33:01;;;;;;;21.67;3.95;;;;;;;4.43;63.21;101329.00;10418619;28;20054;-68
2022/01/15 12:38:25;;;;;;;22.23;4.13;;;;;;;4.49;63.37;101321.25;10422163;28;20476;-67
2022/01/15 12:43:29;;;;;;;21.95;3.90;;;;;;;4.36;64.63;101313.25;10419538;28;20052;-67
2022/01/15 12:48:32;;;;;;;21.40;4.55;;;;;;;4.49;63.71;101308.25;10419275;28;20520;-68
2022/01/15 12:53:36;;;;;;;16.85;3.63;;;;;;;4.61;62.62;101302.31;10418661;28;20095;-68
2022/01/15 12:58:42;;;;;;;13.52;3.83;;;;;;;4.52;60.81;101291.78;10418878;28;20049;-68
2022/01/15 13:03:43;;;;;;;27.35;4.07;;;;;;;4.11;62.82;101288.59;10418839;28;20447;-68
2022/01/15 13:08:45;;;;;;;15.13;3.95;;;;;;;4.28;62.46;101287.13;10418670;28;20042;-68
2022/01/15 13:13:55;;;;;;;17.52;3.85;;;;;;;4.02;63.53;101277.19;10418346;28;20049;-68
2022/01/15 13:19:02;;;;;;;17.60;4.35;;;;;;;4.35;62.69;101275.94;10417932;28;20046;-68
2022/01/15 13:24:11;;;;;;;22.98;4.30;;;;;;;4.37;62.52;101271.63;10381061;28;20210;-67
2022/01/15 13:29:22;;;;;;;18.85;3.85;;;;;;;4.40;63.12;101274.28;10356418;28;20053;-69
2022/01/15 13:34:28;;;;;;;17.70;3.60;;;;;;;4.11;62.90;101271.25;10373535;28;20053;-68
2022/01/15 13:39:29;;;;;;;13.85;3.38;;;;;;;4.08;63.31;101267.75;10374496;28;20112;-67
2022/01/15 13:44:35;;;;;;;16.48;3.55;;;;;;;3.81;65.12;101274.31;10376395;28;20045;-67
2022/01/15 13:55:01;;;;;;;18.10;3.15;;;;;;;3.89;65.46;101277.00;10376038;28;20046;-68
2022/01/15 14:00:11;;;;;;;17.40;3.78;;;;;;;3.98;64.96;101266.72;10375437;28;20045;-68
2022/01/15 14:05:16;;;;;;;15.93;3.97;;;;;;;3.97;65.46;101270.19;10379674;28;20045;-68
2022/01/15 14:10:22;;;;;;;17.70;3.95;;;;;;;3.82;65.73;101277.78;10376327;28;20064;-68
2022/01/15 14:15:34;;;;;;;12.07;3.67;;;;;;;3.84;65.86;101276.06;10377060;28;20112;-68
2022/01/15 14:26:18;;;;;;;20.02;4.38;;;;;;;3.54;66.30;101260.00;10375310;28;20108;-68
2022/01/15 14:31:20;;;;;;;14.23;3.45;;;;;;;3.54;67.05;101257.41;10375012;28;20411;-69
2022/01/15 14:36:22;;;;;;;11.05;3.65;;;;;;;3.64;66.64;101242.81;10390294;28;20061;-69
2022/01/15 14:41:23;;;;;;;11.35;3.78;;;;;;;3.70;66.63;101249.84;10374646;28;20050;-69
2022/01/15 14:46:25;;;;;;;25.25;5.13;;;;;;;3.63;66.22;101243.69;10374325;28;20458;-69
2022/01/15 14:51:26;;;;;;;10.50;3.08;;;;;;;3.42;66.34;101235.53;10374098;28;20045;-68
2022/01/15 14:56:31;;;;;;;10.80;2.55;;;;;;;3.43;66.26;101230.34;10375252;28;20050;-68
2022/01/15 15:01:34;;;;;;;16.25;4.18;;;;;;;3.43;66.29;101226.88;10374321;28;20068;-68
2022/01/15 15:06:39;;;;;;;18.90;3.40;;;;;;;3.30;67.27;101228.38;10373750;28;20046;-68
2022/01/15 15:11:41;;;;;;;13.38;3.92;;;;;;;3.22;67.58;101230.84;10372409;28;20042;-69
2022/01/15 15:16:42;;;;;;;17.35;4.75;;;;;;;3.13;67.23;101245.41;10373718;28;20104;-69
2022/01/15 15:21:44;;;;;;;14.98;3.75;;;;;;;3.16;68.36;101240.28;10373848;28;20053;-69
2022/01/15 15:26:45;;;;;;;15.93;3.55;;;;;;;3.18;68.29;101238.56;10372013;28;20460;-68
2022/01/15 15:31:48;;;;;;;20.02;4.38;;;;;;;3.04;68.42;101236.59;10373446;28;20042;-68
2022/01/15 15:36:50;;;;;;;17.55;4.90;;;;;;;3.17;68.35;101229.03;10373734;28;20496;-68
2022/01/15 15:41:51;;;;;;;12.77;3.63;;;;;;;3.00;68.59;101232.19;10373456;28;20042;-68
2022/01/15 15:46:53;;;;;;;15.18;4.00;;;;;;;2.91;68.78;101229.44;10373198;28;20054;-67
2022/01/15 15:51:55;;;;;;;18.23;4.07;;;;;;;3.03;68.64;101221.88;10372372;28;20050;-68
2022/01/15 15:56:56;;;;;;;15.80;4.07;;;;;;;3.30;67.42;101238.78;10372425;28;20495;-68
2022/01/15 16:01:58;;;;;;;12.50;3.30;;;;;;;3.43;66.30;101226.88;10372654;28;20053;-67
2022/01/15 16:07:00;;;;;;;13.10;3.80;;;;;;;3.11;67.71;101226.34;10372191;28;20492;-67
2022/01/15 16:12:02;;;;;;;14.18;3.47;;;;;;;3.08;68.12;101229.75;10373926;28;20046;-67
2022/01/15 16:17:05;;;;;;;13.18;4.80;;;;;;;2.89;68.43;101225.94;10379656;28;20491;-68
2022/01/15 16:22:07;;;;;;;15.00;4.20;;;;;;;2.84;69.00;101226.72;10378540;28;20057;-67
2022/01/15 16:27:08;;;;;;;14.93;3.55;;;;;;;3.20;67.58;101219.56;10379245;28;20076;-67
2022/01/15 16:32:10;;;;;;;18.27;6.45;;;;;;;3.46;65.60;101216.53;10379342;28;20085;-67
2022/01/15 16:37:12;;;;;;;21.73;4.65;;;;;;;3.22;66.61;101211.78;10377597;28;20100;-67
2022/01/15 16:42:13;;;;;;;17.60;4.40;;;;;;;3.11;67.44;101210.75;10377721;28;20423;-68
2022/01/15 16:47:15;;;;;;;12.57;4.20;;;;;;;2.91;69.21;101220.78;10377778;28;20054;-68
2022/01/15 16:52:17;;;;;;;12.10;4.07;;;;;;;3.02;68.39;101214.94;10378617;28;20049;-68
2022/01/15 16:57:19;;;;;;;8.32;3.33;;;;;;;2.72;68.58;101209.16;10378411;28;20076;-69
2022/01/15 17:02:20;;;;;;;15.05;3.67;;;;;;;2.56;68.71;101200.19;10378461;28;20190;-69
2022/01/15 17:07:22;;;;;;;16.95;3.35;;;;;;;2.83;66.80;101194.66;10378766;28;20096;-68
2022/01/15 17:12:25;;;;;;;16.15;3.35;;;;;;;2.69;68.15;101188.34;10378253;28;20455;-67
2022/01/15 17:17:26;;;;;;;11.30;4.18;;;;;;;2.84;67.78;101191.22;10377884;28;20519;-67
2022/01/15 17:22:28;;;;;;;15.70;4.15;;;;;;;2.66;68.33;101199.56;10377935;28;20381;-69
2022/01/15 17:27:32;;;;;;;15.07;4.13;;;;;;;2.65;68.64;101200.38;10377828;28;20514;-68
2022/01/15 17:32:34;;;;;;;9.80;3.70;;;;;;;2.49;69.41;101188.84;10378233;28;20052;-67
2022/01/15 17:37:36;;;;;;;9.98;4.18;;;;;;;2.33;70.72;101196.28;10376786;28;20061;-67
2022/01/15 17:42:38;;;;;;;11.85;4.47;;;;;;;2.31;70.74;101187.59;10376506;28;20072;-68
2022/01/15 17:47:40;;;;;;;9.38;3.92;;;;;;;2.26;71.42;101177.13;10376072;28;20173;-68
2022/01/15 17:53:02;;;;;;;11.82;4.97;;;;;;;2.14;71.57;101175.16;10361462;28;20045;-68
2022/01/15 17:58:04;;;;;;;12.02;5.28;;;;;;;2.07;72.19;101177.59;10358207;28;20519;-68
2022/01/15 18:03:06;;;;;;;12.85;5.32;;;;;;;1.86;73.32;101170.22;10375844;28;20057;-68
2022/01/15 18:08:07;;;;;;;9.25;4.82;;;;;;;1.65;73.88;101170.63;10375094;28;20038;-68
2022/01/15 18:13:09;;;;;;;14.32;6.00;;;;;;;1.51;74.93;101168.59;10375390;28;20046;-69
2022/01/15 18:18:10;;;;;;;15.10;5.97;;;;;;;1.47;74.61;101174.56;10374673;28;20042;-68
2022/01/15 18:23:13;;;;;;;10.00;6.30;;;;;;;1.42;74.87;101165.81;10375456;28;20392;-68
2022/01/15 18:28:14;;;;;;;15.15;6.85;;;;;;;1.29;75.32;101150.81;10373374;28;20042;-68
2022/01/15 18:33:16;;;;;;;15.43;7.78;;;;;;;1.08;75.70;101142.50;10374483;28;20054;-68
2022/01/15 18:38:17;;;;;;;12.82;8.07;;;;;;;0.92;76.29;101147.28;10373491;28;20046;-69
2022/01/15 18:43:19;;;;;;;18.83;11.32;;;;;;;0.83;76.38;101143.59;10390883;28;20392;-68
2022/01/15 18:48:20;;;;;;;32.50;13.95;;;;;;;0.65;77.19;101131.94;10374068;28;20042;-67
2022/01/15 18:53:22;;;;;;;27.13;11.57;;;;;;;0.54;77.63;101123.03;10374283;28;20455;-68
2022/01/15 18:58:24;;;;;;;18.25;10.38;;;;;;;0.33;78.04;101120.75;10375576;28;20046;-67
2022/01/15 19:03:25;;;;;;;29.20;10.82;;;;;;;0.21;79.17;101118.69;10375386;28;20053;-67
2022/01/15 19:08:27;;;;;;;21.70;11.70;;;;;;;0.10;79.71;101125.28;10375926;28;20050;-67
2022/01/15 19:13:28;;;;;;;21.25;11.25;;;;;;;0.10;79.39;101134.75;10374651;28;20053;-69
2022/01/15 19:18:31;;;;;;;22.33;10.55;;;;;;;0.06;79.51;101154.47;10373669;28;20042;-68
2022/01/15 19:23:33;;;;;;;33.75;17.60;;;;;;;0.17;79.39;101145.28;10374007;28;20440;-67
2022/01/15 19:28:34;;;;;;;31.00;16.15;;;;;;;0.08;79.45;101087.28;10374060;28;20046;-68
2022/01/15 19:33:36;;;;;;;30.38;13.70;;;;;;;-0.23;80.37;101045.09;10395722;28;20041;-67
2022/01/15 19:38:38;;;;;;;23.67;12.48;;;;;;;-0.31;80.64;101078.47;10432772;28;20115;-68
2022/01/15 19:43:41;;;;;;;26.92;14.30;;;;;;;-0.37;81.09;101021.44;10414295;28;20052;-68
2022/01/15 19:48:43;;;;;;;30.58;15.32;;;;;;;-0.31;80.96;100971.66;10419936;28;20029;-67
2022/01/15 19:53:46;;;;;;;37.15;17.58;;;;;;;-0.43;81.71;100986.84;10419839;28;20095;-68
2022/01/15 19:58:49;;;;;;;46.10;16.83;;;;;;;-0.35;81.63;100987.94;10421706;28;20410;-68
2022/01/15 20:03:50;;;;;;;33.70;14.10;;;;;;;-0.19;80.81;101008.16;10422052;28;20049;-67
2022/01/15 20:08:52;;;;;;;26.83;14.10;;;;;;;-0.41;82.02;101031.66;10423630;28;20096;-68
2022/01/15 20:13:53;;;;;;;25.33;14.20;;;;;;;-0.41;82.17;101017.03;10423058;28;20450;-68
2022/01/15 20:18:55;;;;;;;23.52;14.05;;;;;;;-0.28;81.61;101018.25;10423703;28;20403;-68
2022/01/15 20:23:56;;;;;;;22.25;15.07;;;;;;;-0.53;81.58;101037.38;10422346;28;20041;-68
2022/01/15 20:28:58;;;;;;;25.77;15.27;;;;;;;-0.57;81.94;101013.16;10412747;28;20045;-68
2022/01/15 20:34:00;;;;;;;27.85;14.27;;;;;;;-0.71;81.82;100980.88;10422396;28;20099;-69
2022/01/15 20:39:03;;;;;;;26.23;13.82;;;;;;;-0.76;82.43;100973.00;10420523;28;20042;-68
2022/01/15 20:44:05;;;;;;;21.73;13.88;;;;;;;-0.63;81.64;100981.97;10421371;28;20056;-68
2022/01/15 20:49:07;;;;;;;26.73;13.52;;;;;;;-0.57;81.80;100958.03;10421297;28;20042;-69
2022/01/15 20:54:09;;;;;;;34.30;15.50;;;;;;;-0.95;82.72;100969.84;10421659;28;20045;-68
2022/01/15 20:59:10;;;;;;;27.65;13.43;;;;;;;-1.04;83.88;101007.44;10420182;28;20415;-69
2022/01/15 21:04:17;;;;;;;40.33;14.88;;;;;;;-0.99;83.48;101002.41;10419869;28;20046;-69
2022/01/15 21:09:19;;;;;;;29.43;14.00;;;;;;;-1.10;83.40;101017.59;10420120;28;20038;-68
2022/01/15 21:14:20;;;;;;;26.27;15.13;;;;;;;-1.21;84.02;101013.78;10421680;28;20175;-68
2022/01/15 21:19:22;;;;;;;32.17;15.48;;;;;;;-1.30;84.17;100990.28;10419979;28;20042;-68
2022/01/15 21:24:23;;;;;;;18.95;14.25;;;;;;;-1.35;84.64;100990.13;10420333;28;20042;-68
2022/01/15 21:29:45;;;;;;;22.17;14.35;;;;;;;-1.43;84.65;100998.44;10419508;28;20109;-69
2022/01/15 21:34:51;;;;;;;26.73;14.93;;;;;;;-1.40;84.76;100976.22;10418770;28;20053;-68
2022/01/15 21:39:53;;;;;;;34.88;15.52;;;;;;;-1.24;84.37;100981.84;10419402;28;20480;-69
2022/01/15 21:44:55;;;;;;;28.77;15.48;;;;;;;-1.25;83.30;100996.44;10418249;28;20049;-68
2022/01/15 21:49:57;;;;;;;29.15;13.88;;;;;;;-1.33;83.88;101005.63;10418374;28;20049;-68
2022/01/15 21:55:00;;;;;;;42.05;17.60;;;;;;;-1.50;84.58;100989.66;10418778;28;20052;-68
2022/01/15 22:00:04;;;;;;;35.13;17.73;;;;;;;-1.50;84.48;100996.53;10418448;28;20042;-69
2022/01/15 22:05:11;;;;;;;35.30;18.27;;;;;;;-1.75;86.17;101002.56;10418251;28;20112;-70
2022/01/15 22:10:13;;;;;;;22.00;16.83;;;;;;;-1.83;86.92;101002.28;10417731;28;20472;-70
2022/01/15 22:15:18;;;;;;;39.83;17.45;;;;;;;-1.69;86.32;100995.03;10416620;28;20056;-70
2022/01/15 22:20:27;;;;;;;21.50;15.63;;;;;;;-1.89;86.31;101004.69;10416197;28;20059;-70
2022/01/15 22:25:30;;;;;;;30.65;17.02;;;;;;;-1.59;84.82;101005.69;10417369;28;20445;-69
2022/01/15 22:30:31;;;;;;;42.22;16.85;;;;;;;-1.64;84.72;101007.25;10416394;28;20512;-69
2022/01/15 22:35:33;;;;;;;30.25;17.27;;;;;;;-1.77;85.56;100999.94;10416793;28;20045;-70
2022/01/15 22:40:35;;;;;;;31.33;18.05;;;;;;;-1.96;86.38;100990.69;10416428;28;20049;-69
2022/01/15 22:45:39;;;;;;;38.03;19.58;;;;;;;-2.10;86.50;100985.06;10416741;28;20514;-69
2022/01/15 22:50:41;;;;;;;23.73;18.15;;;;;;;-2.15;86.82;100981.47;10415601;28;20046;-69
2022/01/15 22:55:44;;;;;;;31.02;17.75;;;;;;;-2.25;87.12;100975.94;10415092;28;20046;-69
2022/01/15 23:00:53;;;;;;;43.95;18.75;;;;;;;-2.34;87.58;100976.50;10416701;28;20049;-69
2022/01/15 23:05:55;;;;;;;25.02;16.92;;;;;;;-2.10;87.21;100979.91;10398257;28;20053;-68
2022/01/15 23:11:04;;;;;;;28.10;16.13;;;;;;;-2.16;86.74;100974.56;10416350;28;20099;-70
2022/01/15 23:16:18;;;;;;;32.30;16.77;;;;;;;-2.20;86.82;100966.69;10416224;28;20045;-69
2022/01/15 23:21:20;;;;;;;34.67;17.15;;;;;;;-2.28;87.30;100948.38;10419161;28;20037;-69
2022/01/15 23:26:24;;;;;;;21.85;15.50;;;;;;;-2.29;87.18;100952.66;10429702;28;20128;-69
2022/01/15 23:31:26;;;;;;;29.52;16.13;;;;;;;-2.31;87.77;100935.38;10429590;28;20442;-69